Terminal Aerodrome Forecast
Issued by NWS Tuscon, AZ

Home | Current Version | Previous Version | Text Only | Print | Product List | Glossary On
Versions: 1 2 3 4 5 6 7 8 9 10 11 12 13 14 15
000
FTUS45 KTWC 242300
TAFDUG
TAF
KDUG 242328Z 2500/2524 16004KT P6SM SCT250
     FM250300 02007KT P6SM BKN200
     FM251500 18012G20KT P6SM SCT090 BKN180
     FM251900 22026G34KT P6SM FEW050 BKN080=

USA.gov is the U.S. government's official web portal to all federal, state and local government web resources and services.